Time;durP1;ratioP1;P1;durP2;ratioP2;P2;SDS_P1;SDS_P2;PMS_P1;PMS_P2;Temp;Humidity;BMP_temperature;BMP_pressure;BME280_temperature;BME280_humidity;BME280_pressure;Samples;Min_cycle;Max_cycle;Signal;HPM_P1;HPM_P2
2022/04/11 00:03:49;;;;;;;6.35;2.20;;;;;;;3.80;42.31;92763.59;6095605;23;20049;-90
2022/04/11 00:06:15;;;;;;;3.95;1.70;;;;;;;4.25;42.30;92834.41;6102708;23;20016;-89
2022/04/11 00:08:43;;;;;;;5.75;2.10;;;;;;;4.26;42.95;92839.38;6164738;23;20048;-89
2022/04/11 00:11:09;;;;;;;4.95;2.03;;;;;;;4.04;43.37;92804.84;6189925;23;20009;-89
2022/04/11 00:20:19;;;;;;;3.75;1.90;;;;;;;4.01;43.13;92823.44;6218678;23;20046;-89
2022/04/11 00:26:41;;;;;;;4.97;2.00;;;;;;;4.10;43.61;92835.00;6218886;23;20035;-89
2022/04/11 00:29:06;;;;;;;4.80;2.00;;;;;;;3.92;43.58;92823.88;6177887;23;20016;-88
2022/04/11 00:31:34;;;;;;;4.15;2.10;;;;;;;4.11;44.18;92854.69;6247240;23;20083;-89
2022/04/11 00:34:09;;;;;;;4.40;2.20;;;;;;;3.66;44.30;92788.25;6197931;23;20020;-89
2022/04/11 00:40:41;;;;;;;5.75;2.00;;;;;;;3.62;44.13;92789.72;6248940;23;20390;-90
2022/04/11 00:43:06;;;;;;;4.43;2.03;;;;;;;3.92;44.74;92838.63;6221957;23;20008;-89
2022/04/11 00:45:32;;;;;;;7.35;2.15;;;;;;;4.04;44.64;92861.84;6197422;23;20027;-89
2022/04/11 00:47:57;;;;;;;4.50;2.00;;;;;;;4.06;43.84;92862.41;6171832;23;20008;-89
2022/04/11 00:50:23;;;;;;;5.43;1.90;;;;;;;4.00;43.74;92847.78;6221136;23;20070;-89
2022/04/11 00:52:53;;;;;;;5.93;2.10;;;;;;;4.04;44.17;92856.66;6171862;23;20039;-89
2022/04/11 00:55:21;;;;;;;6.20;2.30;;;;;;;3.93;44.45;92842.78;6221611;23;20012;-90
2022/04/11 00:57:48;;;;;;;5.05;1.90;;;;;;;3.80;45.26;92830.91;6221639;23;20348;-90
2022/04/11 01:00:16;;;;;;;3.70;1.85;;;;;;;4.06;45.23;92868.38;6221757;23;20008;-90
2022/04/11 01:02:44;;;;;;;4.40;1.80;;;;;;;4.04;45.49;92862.63;6246681;23;20012;-90
2022/04/11 01:05:52;;;;;;;4.25;1.95;;;;;;;3.83;45.46;92833.06;6192015;23;20509;-90
2022/04/11 01:12:46;;;;;;;3.88;2.00;;;;;;;3.72;45.78;92810.63;6248622;23;20430;-90
2022/04/11 01:15:29;;;;;;;6.00;1.90;;;;;;;4.09;44.91;92856.75;6203255;23;20042;-90
2022/04/11 01:18:13;;;;;;;3.75;1.95;;;;;;;3.71;44.49;92796.84;6203250;23;20102;-89
2022/04/11 01:25:01;;;;;;;3.58;1.75;;;;;;;4.00;45.45;92837.44;6248763;23;20027;-90
2022/04/11 01:38:02;;;;;;;4.38;2.05;;;;;;;4.16;46.02;92880.69;6189882;22;20027;-90
2022/04/11 01:44:25;;;;;;;4.68;1.73;;;;;;;4.12;45.65;92874.38;6248315;23;20075;-90
2022/04/11 01:50:46;;;;;;;4.32;1.85;;;;;;;4.07;45.40;92876.91;6248231;23;20035;-90
2022/04/11 01:53:19;;;;;;;4.20;1.80;;;;;;;3.99;46.19;92872.16;6221376;23;20123;-90
2022/04/11 01:55:46;;;;;;;3.85;1.77;;;;;;;3.94;46.02;92872.81;6221691;23;20012;-90
2022/04/11 01:58:15;;;;;;;3.75;1.70;;;;;;;4.02;45.96;92879.44;6222835;23;20015;-90
2022/04/11 02:00:59;;;;;;;13.00;1.77;;;;;;;3.77;46.11;92844.34;6246610;23;20016;-90
2022/04/11 02:04:14;;;;;;;3.08;1.60;;;;;;;3.86;46.07;92861.06;6248044;23;20348;-89
2022/04/11 02:10:37;;;;;;;5.22;1.98;;;;;;;3.88;46.74;92869.38;6248011;23;20075;-90
2022/04/11 02:17:10;;;;;;;5.50;1.77;;;;;;;3.85;47.12;92879.41;6249925;23;20034;-90
2022/04/11 02:23:35;;;;;;;3.65;1.60;;;;;;;3.73;47.10;92876.91;6249819;23;20128;-90
2022/04/11 02:26:02;;;;;;;3.65;1.80;;;;;;;3.73;47.27;92877.69;6248117;23;20439;-90
2022/04/11 02:28:28;;;;;;;3.90;1.77;;;;;;;3.48;46.90;92841.81;6196784;23;20008;-90
2022/04/11 02:31:01;;;;;;;5.85;1.92;;;;;;;3.70;46.88;92875.56;6167794;23;20313;-90
2022/04/11 02:33:42;;;;;;;;;;;;;;;;;;;;;
2022/04/11 02:40:07;;;;;;;4.65;1.75;;;;;;;3.70;47.70;92877.38;6219651;23;20042;-88
2022/04/11 02:42:42;;;;;;;4.18;1.90;;;;;;;3.70;47.37;92878.16;6210735;23;20020;-88
2022/04/11 02:49:11;;;;;;;4.25;1.90;;;;;;;3.55;46.91;92849.41;6216655;23;20016;-90
2022/04/11 02:52:05;;;;;;;4.82;1.90;;;;;;;3.72;46.62;92875.34;6178053;23;20023;-89
2022/04/11 02:54:31;;;;;;;3.55;1.70;;;;;;;3.67;46.79;92862.28;6189485;23;20008;-90
2022/04/11 02:56:57;;;;;;;5.53;1.83;;;;;;;3.71;46.19;92866.75;6140666;23;20023;-90
2022/04/11 02:59:33;;;;;;;;;;;;;;;;;;;;;
2022/04/11 03:02:33;;;;;;;4.25;1.65;;;;;;;3.26;46.20;92815.03;6167898;23;20020;-90
2022/04/11 03:05:12;;;;;;;3.80;1.80;;;;;;;3.18;46.02;92792.13;6167282;23;20507;-89
2022/04/11 03:08:02;;;;;;;3.72;1.77;;;;;;;3.26;46.13;92813.22;6077617;23;20062;-90
2022/04/11 03:11:18;;;;;;;;;;;;;;;;;;;;;
2022/04/11 03:17:45;;;;;;;4.95;1.90;;;;;;;3.58;45.40;92850.75;6185372;23;20082;-89
2022/04/11 03:20:14;;;;;;;2.50;1.40;;;;;;;3.42;45.44;92831.59;6141610;23;20027;-90
2022/04/11 03:22:41;;;;;;;3.17;1.60;;;;;;;3.64;45.32;92858.38;6164650;23;20020;-89
2022/04/11 03:29:02;;;;;;;3.20;1.52;;;;;;;3.60;45.35;92864.25;6216506;22;20171;-89
2022/04/11 03:35:07;;;;;;;4.65;1.60;;;;;;;3.60;44.80;92861.66;6190570;23;20095;-90
2022/04/11 03:41:33;;;;;;;4.82;1.67;;;;;;;3.45;47.16;92838.91;6217017;23;20023;-90
2022/04/11 03:44:21;;;;;;;6.00;1.60;;;;;;;3.37;47.16;92834.88;6162111;23;20035;-89
2022/04/11 03:46:50;;;;;;;7.97;1.90;;;;;;;3.54;47.39;92859.00;6120265;23;20412;-89
2022/04/11 03:49:21;;;;;;;5.20;1.50;;;;;;;3.54;47.26;92847.88;6144629;23;20032;-89
2022/04/11 03:52:05;;;;;;;4.07;1.70;;;;;;;3.43;47.30;92840.94;6168044;23;20071;-89
2022/04/11 03:58:32;;;;;;;3.13;1.70;;;;;;;3.44;46.69;92843.28;6217670;23;20408;-89
2022/04/11 04:01:02;;;;;;;3.35;1.65;;;;;;;3.42;46.46;92855.66;6142774;23;20385;-89
2022/04/11 04:03:28;;;;;;;4.90;1.50;;;;;;;3.33;47.45;92836.34;6142456;23;20100;-89
2022/04/11 04:06:20;;;;;;;6.07;1.95;;;;;;;3.40;47.17;92855.13;6167471;23;20009;-89
2022/04/11 04:12:40;;;;;;;3.97;1.92;;;;;;;3.19;46.85;92833.28;6185146;23;20028;-89
2022/04/11 04:15:13;;;;;;;5.22;1.77;;;;;;;3.21;46.98;92851.94;6160555;23;20021;-89
2022/04/11 04:17:45;;;;;;;3.65;1.92;;;;;;;3.19;47.22;92851.38;6113659;23;20044;-90
2022/04/11 04:20:11;;;;;;;3.60;1.77;;;;;;;3.14;47.05;92840.97;6088252;23;20338;-89
2022/04/11 04:26:30;;;;;;;3.83;1.90;;;;;;;2.95;47.77;92827.44;6184984;23;20024;-90
2022/04/11 04:28:58;;;;;;;8.48;2.33;;;;;;;2.98;47.67;92839.13;6111349;23;20107;-90
2022/04/11 04:32:10;;;;;;;5.38;2.28;;;;;;;3.00;47.86;92845.63;6136170;23;20040;-90
2022/04/11 04:34:37;;;;;;;6.57;1.90;;;;;;;2.84;47.26;92833.44;6159788;23;20009;-90
2022/04/11 04:37:04;;;;;;;4.82;1.90;;;;;;;3.02;46.56;92846.19;6148793;23;20078;-89
2022/04/11 04:39:30;;;;;;;4.05;1.80;;;;;;;2.94;47.87;92843.16;6142485;23;20412;-90
2022/04/11 04:41:57;;;;;;;5.57;1.90;;;;;;;2.94;47.19;92856.09;6166245;23;20016;-90
2022/04/11 04:44:23;;;;;;;6.70;2.00;;;;;;;2.89;47.62;92852.41;6191651;23;20024;-89
2022/04/11 04:46:54;;;;;;;4.15;2.17;;;;;;;2.88;47.36;92856.00;6119949;23;20016;-90
2022/04/11 04:49:27;;;;;;;3.90;1.92;;;;;;;2.74;47.33;92836.59;6144425;23;20013;-88
2022/04/11 04:51:56;;;;;;;6.30;1.80;;;;;;;2.90;47.89;92859.16;6116873;23;20339;-88
2022/04/11 04:54:21;;;;;;;4.75;2.00;;;;;;;2.92;47.36;92861.50;6188413;23;20340;-89
2022/04/11 04:56:49;;;;;;;4.55;2.00;;;;;;;2.81;47.26;92844.22;6119413;23;20447;-88
2022/04/11 04:59:21;;;;;;;5.40;1.95;;;;;;;2.75;47.58;92840.75;6188848;23;20020;-90
2022/04/11 05:01:47;;;;;;;4.80;2.03;;;;;;;2.91;48.08;92865.09;6113259;23;20009;-91
2022/04/11 05:04:13;;;;;;;4.90;1.73;;;;;;;2.96;49.82;92869.59;6138946;23;20348;-88
2022/04/11 05:06:39;;;;;;;5.03;1.90;;;;;;;2.80;50.13;92847.81;6163759;23;20420;-87
2022/04/11 05:09:09;;;;;;;6.30;2.00;;;;;;;2.83;49.24;92848.13;6141003;23;20071;-87
2022/04/11 05:11:35;;;;;;;5.55;1.83;;;;;;;2.92;49.36;92864.09;6188674;23;20040;-88
2022/04/11 05:14:01;;;;;;;5.75;1.98;;;;;;;2.89;49.49;92856.78;6162843;23;20020;-88
2022/04/11 05:16:29;;;;;;;6.60;2.22;;;;;;;3.05;49.16;92863.81;6165005;23;20008;-88
2022/04/11 05:18:55;;;;;;;4.15;1.90;;;;;;;3.19;49.23;92871.31;6164988;23;20024;-87
2022/04/11 05:21:21;;;;;;;5.22;2.05;;;;;;;3.24;48.62;92868.81;6187559;23;20016;-90
2022/04/11 05:23:48;;;;;;;5.03;2.28;;;;;;;3.32;48.20;92876.22;6163812;23;20328;-86
2022/04/11 05:26:13;;;;;;;7.43;2.00;;;;;;;3.27;48.25;92843.25;6189209;23;20503;-89
2022/04/11 05:28:40;;;;;;;7.18;1.95;;;;;;;3.51;48.21;92874.19;6139844;23;20106;-88
2022/04/11 05:31:05;;;;;;;4.43;2.00;;;;;;;3.66;48.00;92871.88;6215316;23;20012;-88
2022/04/11 05:33:35;;;;;;;4.82;2.20;;;;;;;3.72;47.70;92870.16;6141117;23;20017;-90
2022/04/11 05:36:05;;;;;;;3.75;2.00;;;;;;;3.97;47.27;92882.72;6188950;23;20017;-90
2022/04/11 05:38:31;;;;;;;5.25;2.05;;;;;;;3.94;46.77;92863.28;6188920;23;20017;-88
2022/04/11 05:40:56;;;;;;;5.57;2.05;;;;;;;4.07;46.55;92864.75;6139998;23;20447;-88
2022/04/11 05:43:38;;;;;;;4.80;1.90;;;;;;;4.42;46.82;92891.44;6166882;23;20503;-89
2022/04/11 05:46:05;;;;;;;4.10;2.00;;;;;;;4.60;46.68;92901.53;6215443;23;20024;-88
2022/04/11 05:48:32;;;;;;;4.25;2.00;;;;;;;4.79;46.35;92899.44;6188866;23;20012;-89
2022/04/11 05:51:01;;;;;;;3.22;1.73;;;;;;;4.97;45.74;92895.75;6163881;23;20092;-88
2022/04/11 05:53:27;;;;;;;3.50;1.70;;;;;;;5.17;45.21;92898.59;6164463;23;20027;-89
2022/04/11 05:55:53;;;;;;;4.25;1.73;;;;;;;5.41;44.57;92903.53;6163459;23;20075;-88
2022/04/11 05:58:19;;;;;;;4.28;2.08;;;;;;;5.43;44.28;92873.72;6139827;23;20012;-88
2022/04/11 06:00:47;;;;;;;3.70;1.92;;;;;;;5.81;44.18;92915.38;6114073;23;20027;-89
2022/04/11 06:03:15;;;;;;;4.40;1.80;;;;;;;5.93;43.71;92903.00;6189324;23;20096;-89
2022/04/11 06:05:41;;;;;;;5.03;1.80;;;;;;;6.12;44.17;92910.47;6140648;23;20021;-89
2022/04/11 06:08:07;;;;;;;6.22;2.20;;;;;;;6.34;44.50;92924.16;6139822;23;20009;-88
2022/04/11 06:10:38;;;;;;;7.00;2.17;;;;;;;6.37;43.98;92908.06;6164714;23;20448;-90
2022/04/11 06:13:05;;;;;;;3.83;1.98;;;;;;;6.67;43.76;92924.91;6165141;23;20028;-89
2022/04/11 06:15:30;;;;;;;15.73;2.15;;;;;;;7.18;43.79;92917.38;6114426;23;20067;-89
2022/04/11 06:17:59;;;;;;;4.82;2.10;;;;;;;10.19;35.77;92930.31;6139705;23;20067;-89
2022/04/11 06:20:24;;;;;;;9.82;2.40;;;;;;;13.23;29.96;92902.66;6188574;23;20021;-91
2022/04/11 06:22:50;;;;;;;75.38;7.40;;;;;;;14.42;28.13;92920.22;6138295;23;20019;-90
2022/04/11 06:25:17;;;;;;;6.90;2.00;;;;;;;14.02;27.07;92922.69;6188787;23;20391;-93
2022/04/11 06:27:43;;;;;;;4.35;2.13;;;;;;;15.97;24.21;92893.00;6138868;23;20020;-88
2022/04/11 06:30:09;;;;;;;5.35;1.92;;;;;;;17.44;21.85;92898.41;6201385;23;20012;-90
2022/04/11 06:32:38;;;;;;;3.65;1.77;;;;;;;15.41;22.86;92918.31;6195352;23;20013;-88
2022/04/11 06:35:04;;;;;;;4.38;2.08;;;;;;;17.09;22.25;92918.91;6191115;23;20058;-88
2022/04/11 06:37:30;;;;;;;4.25;2.00;;;;;;;18.25;21.34;92889.38;6215862;23;20020;-88
2022/04/11 06:39:58;;;;;;;5.30;2.03;;;;;;;17.96;21.51;92907.97;6217223;23;20024;-88
2022/04/11 06:42:24;;;;;;;5.28;2.10;;;;;;;18.30;21.20;92918.31;6241631;23;20051;-89
2022/04/11 06:44:52;;;;;;;6.55;2.30;;;;;;;17.95;21.91;92906.44;6218754;23;20108;-89
2022/04/11 06:47:21;;;;;;;10.90;2.75;;;;;;;19.20;20.71;92905.53;6193674;23;20099;-91
2022/04/11 06:49:47;;;;;;;37.08;4.60;;;;;;;21.46;18.55;92913.91;6218532;23;20095;-88
2022/04/11 06:52:13;;;;;;;8.32;2.35;;;;;;;21.59;18.98;92902.06;6217975;23;20054;-89
2022/04/11 06:54:38;;;;;;;9.55;2.50;;;;;;;20.18;19.10;92916.19;6243663;23;20431;-90
2022/04/11 06:57:04;;;;;;;4.50;2.05;;;;;;;16.32;23.66;92924.72;6243773;23;20014;-89
2022/04/11 06:59:30;;;;;;;9.32;2.33;;;;;;;16.70;23.54;92892.34;6243265;23;20099;-90
2022/04/11 07:01:56;;;;;;;7.55;2.63;;;;;;;17.03;23.39;92886.56;6244063;23;20071;-89
2022/04/11 07:04:22;;;;;;;7.07;2.17;;;;;;;15.92;24.80;92931.97;6218298;23;20051;-88
2022/04/11 07:06:47;;;;;;;6.30;2.35;;;;;;;15.94;24.92;92927.97;6218185;23;20020;-88
2022/04/11 07:09:14;;;;;;;6.60;2.33;;;;;;;12.60;29.83;92912.66;6218635;23;20018;-88
2022/04/11 07:11:42;;;;;;;4.70;2.20;;;;;;;11.46;33.31;92928.41;6244800;22;20019;-89
2022/04/11 07:14:07;;;;;;;5.95;2.15;;;;;;;10.98;32.97;92925.75;6245104;22;20015;-89
2022/04/11 07:16:33;;;;;;;5.18;2.00;;;;;;;10.44;33.87;92939.06;6244871;22;20016;-88
2022/04/11 07:18:59;;;;;;;4.90;2.45;;;;;;;9.82;35.50;92912.50;6168894;23;20023;-88
2022/04/11 07:21:24;;;;;;;6.20;2.30;;;;;;;10.06;35.81;92938.78;6243519;23;20016;-88
2022/04/11 07:23:50;;;;;;;4.90;2.20;;;;;;;9.36;37.62;92929.94;6243311;23;20009;-89
2022/04/11 07:26:16;;;;;;;5.63;2.28;;;;;;;9.94;36.17;92931.25;6217434;23;20061;-88
2022/04/11 07:28:41;;;;;;;5.35;2.42;;;;;;;9.73;35.31;92907.84;6239321;23;20019;-89
2022/04/11 07:31:07;;;;;;;5.47;2.72;;;;;;;9.96;36.66;92950.88;6141893;23;20151;-90
2022/04/11 07:33:33;;;;;;;5.43;2.03;;;;;;;9.83;37.10;92924.53;6212594;22;20389;-92
2022/04/11 07:35:58;;;;;;;4.90;2.35;;;;;;;9.72;37.19;92939.47;6164731;23;20004;-91
2022/04/11 07:38:24;;;;;;;7.70;2.30;;;;;;;10.01;36.48;92931.75;6240143;22;19997;-93
2022/04/11 07:40:50;;;;;;;3.72;1.98;;;;;;;9.93;36.17;92925.25;6163652;23;20021;-92
2022/04/11 07:43:16;;;;;;;7.55;2.45;;;;;;;9.92;36.91;92943.81;6186896;23;20086;-89
2022/04/11 07:45:42;;;;;;;10.15;2.30;;;;;;;9.90;38.07;92948.53;6194187;23;20005;-88
2022/04/11 07:48:08;;;;;;;4.13;2.00;;;;;;;8.86;37.89;92938.72;6215841;23;20012;-89
2022/04/11 07:50:34;;;;;;;7.80;2.28;;;;;;;8.40;40.01;92934.34;6165037;23;20067;-88
2022/04/11 07:53:00;;;;;;;5.93;2.30;;;;;;;8.46;39.76;92950.75;6164041;23;20032;-89
2022/04/11 07:55:26;;;;;;;5.25;2.50;;;;;;;9.04;40.03;92960.88;6163628;23;20066;-88
2022/04/11 07:57:54;;;;;;;3.63;1.90;;;;;;;9.10;39.34;92937.09;6188131;23;20017;-88
2022/04/11 08:00:20;;;;;;;4.22;2.25;;;;;;;9.25;39.12;92938.09;6187820;23;20433;-89
2022/04/11 08:02:51;;;;;;;4.75;2.22;;;;;;;9.40;39.48;92953.72;6187835;23;20063;-88
2022/04/11 08:05:19;;;;;;;6.07;2.20;;;;;;;9.83;36.97;92950.69;6188282;23;20020;-88
2022/04/11 08:07:48;;;;;;;6.22;1.90;;;;;;;9.65;36.85;92950.22;6163804;23;20015;-88
2022/04/11 08:10:16;;;;;;;4.82;2.05;;;;;;;9.75;36.69;92955.44;6164278;23;20020;-87
2022/04/11 08:12:53;;;;;;;24.35;3.50;;;;;;;9.66;36.95;92945.78;6163609;23;20035;-86
2022/04/11 08:15:20;;;;;;;5.05;2.10;;;;;;;9.74;38.12;92947.84;6214475;23;20024;-87
2022/04/11 08:17:45;;;;;;;6.03;2.25;;;;;;;9.47;37.41;92927.31;6187693;23;20017;-87
2022/04/11 08:20:11;;;;;;;7.72;2.50;;;;;;;9.68;37.31;92933.22;6214303;23;20080;-88
2022/04/11 08:22:36;;;;;;;6.18;2.17;;;;;;;9.82;37.01;92910.69;6186817;23;20024;-88
2022/04/11 08:25:02;;;;;;;4.20;2.10;;;;;;;9.71;38.06;92924.84;6187671;23;20437;-88
2022/04/11 08:27:28;;;;;;;5.32;2.15;;;;;;;10.40;37.52;92939.63;6188087;23;20364;-88
2022/04/11 08:29:53;;;;;;;4.13;2.25;;;;;;;9.66;37.34;92933.50;6219196;23;20020;-88
2022/04/11 08:32:19;;;;;;;4.63;1.90;;;;;;;9.67;37.32;92957.81;6218190;23;20095;-88
2022/04/11 08:34:45;;;;;;;3.78;1.77;;;;;;;10.03;36.36;92966.25;6217722;23;20016;-88
2022/04/11 08:37:10;;;;;;;4.80;2.10;;;;;;;10.03;36.11;92960.25;6193410;23;20050;-88
2022/04/11 08:39:36;;;;;;;3.72;1.85;;;;;;;9.28;36.71;92955.88;6220075;23;20374;-88
2022/04/11 08:42:02;;;;;;;5.03;1.95;;;;;;;10.47;37.19;92968.09;6245008;23;20349;-88
2022/04/11 08:44:28;;;;;;;3.90;1.85;;;;;;;10.69;34.61;92951.94;6170066;23;20115;-89
2022/04/11 08:47:02;;;;;;;3.53;1.75;;;;;;;10.76;33.71;92935.91;6195497;23;20028;-89
2022/04/11 08:49:31;;;;;;;4.80;1.90;;;;;;;10.65;35.48;92950.16;6245958;23;20039;-90
2022/04/11 08:51:57;;;;;;;3.75;1.70;;;;;;;10.54;34.01;92895.28;6246810;22;20020;-90
2022/04/11 08:54:23;;;;;;;5.45;1.90;;;;;;;10.81;35.00;92954.22;6220369;23;20004;-89
2022/04/11 08:56:49;;;;;;;4.53;1.88;;;;;;;10.90;34.97;92934.22;6244583;23;20022;-90
2022/04/11 08:59:15;;;;;;;6.45;1.88;;;;;;;11.04;33.47;92953.47;6220172;23;20039;-89
2022/04/11 09:01:40;;;;;;;4.25;1.73;;;;;;;10.03;34.34;92941.94;6194684;23;20424;-88
2022/04/11 09:04:08;;;;;;;3.70;1.85;;;;;;;10.90;33.54;92962.25;6244815;23;20091;-90
2022/04/11 09:06:35;;;;;;;4.40;1.52;;;;;;;10.47;32.68;92955.03;6246109;22;20027;-88
2022/04/11 09:09:02;;;;;;;3.55;1.83;;;;;;;10.46;33.54;92965.75;6244153;23;20011;-89
2022/04/11 09:11:34;;;;;;;3.80;1.77;;;;;;;10.82;33.42;92953.16;6219769;23;20368;-87
2022/04/11 09:14:02;;;;;;;5.20;1.70;;;;;;;10.65;32.55;92944.91;6246636;22;20012;-88
2022/04/11 09:16:43;;;;;;;5.22;1.80;;;;;;;10.67;31.51;92927.09;6244711;23;20008;-88
2022/04/11 09:19:38;;;;;;;5.45;1.85;;;;;;;11.23;31.22;92947.50;6245031;23;20085;-88
2022/04/11 09:22:05;;;;;;;;;;;;;;;11.27;32.64;92948.53;6239272;23;20011;-88
2022/04/11 09:24:31;;;;;;;5.00;1.70;;;;;;;11.17;32.39;92936.31;6244187;23;19903;-89
2022/04/11 09:26:57;;;;;;;5.05;1.70;;;;;;;11.44;32.80;92933.13;6244007;23;20036;-89
2022/04/11 09:29:25;;;;;;;6.85;1.90;;;;;;;11.31;32.43;92933.03;6243520;23;20020;-88
2022/04/11 09:31:51;;;;;;;4.95;1.70;;;;;;;11.33;31.22;92918.59;6244072;23;20087;-89
2022/04/11 09:34:19;;;;;;;3.03;1.45;;;;;;;11.19;32.45;92928.16;6219842;23;20420;-88
2022/04/11 09:37:03;;;;;;;3.40;1.63;;;;;;;10.66;32.42;92956.97;6218867;23;20011;-88
2022/04/11 09:39:36;;;;;;;4.13;2.00;;;;;;;10.82;31.95;92940.06;6244334;23;20016;-87
2022/04/11 09:42:04;;;;;;;4.32;1.70;;;;;;;10.93;32.57;92932.91;6245182;23;20016;-88
2022/04/11 09:44:34;;;;;;;7.97;2.15;;;;;;;10.91;32.50;92943.63;6218959;23;20008;-87
2022/04/11 09:47:03;;;;;;;4.10;2.03;;;;;;;10.70;32.69;92929.19;6218920;23;20012;-89
2022/04/11 09:49:29;;;;;;;4.20;1.77;;;;;;;11.01;32.62;92933.06;6243791;23;20023;-89
2022/04/11 09:52:07;;;;;;;4.65;2.17;;;;;;;10.63;33.01;92927.66;6245098;22;20008;-89
2022/04/11 09:54:33;;;;;;;4.45;1.90;;;;;;;10.55;33.79;92936.09;6218146;23;20027;-89
2022/04/11 09:57:02;;;;;;;3.10;1.70;;;;;;;10.92;30.84;92929.50;6243564;23;20381;-88
2022/04/11 09:59:28;;;;;;;4.68;1.95;;;;;;;11.34;32.89;92919.38;6244805;23;20024;-90
2022/04/11 10:02:02;;;;;;;4.55;2.13;;;;;;;11.78;31.95;92932.22;6219410;23;20074;-89
2022/04/11 10:04:50;;;;;;;;;;;;;;;;;;;;;
2022/04/11 10:07:44;;;;;;;4.00;2.00;;;;;;;11.32;31.72;92903.13;6250714;23;20436;-89
2022/04/11 10:10:22;;;;;;;4.25;1.83;;;;;;;12.21;30.81;92931.41;6243035;23;20083;-89
2022/04/11 10:12:55;;;;;;;4.25;1.90;;;;;;;11.45;30.25;92887.50;6216064;23;20451;-88
2022/04/11 10:15:55;;;;;;;4.72;1.95;;;;;;;11.35;30.44;92915.66;6244656;23;20032;-89
2022/04/11 10:18:39;;;;;;;;;;;;;;;;;;;;;
2022/04/11 10:21:17;;;;;;;3.63;2.00;;;;;;;11.63;31.19;92896.47;6244617;22;20023;-89
2022/04/11 10:24:14;;;;;;;3.47;1.75;;;;;;;11.66;31.01;92874.94;6216853;23;20040;-89
2022/04/11 10:26:56;;;;;;;4.28;1.80;;;;;;;11.99;30.57;92905.72;6221982;23;20050;-89
2022/04/11 10:29:44;;;;;;;4.72;1.80;;;;;;;12.13;29.94;92896.06;6217028;23;20015;-90
2022/04/11 10:32:27;;;;;;;4.63;1.75;;;;;;;11.98;29.96;92872.66;6241903;23;20099;-91
2022/04/11 10:35:34;;;;;;;3.10;1.77;;;;;;;12.75;31.14;92918.75;6243218;23;20072;-90
2022/04/11 10:38:15;;;;;;;3.90;1.70;;;;;;;12.79;29.59;92888.19;6242299;23;20095;-89
2022/04/11 10:40:53;;;;;;;3.22;1.60;;;;;;;11.65;29.56;92851.59;6216485;23;20051;-90
2022/04/11 10:43:36;;;;;;;;;;;;;;;;;;;;;
2022/04/11 10:46:18;;;;;;;4.05;1.90;;;;;;;11.57;29.41;92865.34;6244406;23;20031;-88
2022/04/11 10:48:57;;;;;;;2.83;1.50;;;;;;;11.95;30.53;92897.63;6193757;23;20044;-89
2022/04/11 10:51:23;;;;;;;6.07;1.70;;;;;;;11.95;30.22;92847.00;6244389;22;20012;-89
2022/04/11 10:54:21;;;;;;;5.90;1.95;;;;;;;11.95;29.28;92891.59;6217871;23;20039;-91
2022/04/11 10:57:13;;;;;;;5.38;1.90;;;;;;;12.14;30.18;92874.03;6218151;23;20458;-89
2022/04/11 11:00:06;;;;;;;5.68;1.90;;;;;;;12.52;30.30;92905.47;6218168;23;20008;-89
2022/04/11 11:02:56;;;;;;;3.92;1.77;;;;;;;12.27;29.11;92904.00;6243034;23;20008;-89
2022/04/11 11:06:22;;;;;;;2.97;1.40;;;;;;;11.97;30.74;92863.25;6218545;23;20023;-93
2022/04/11 11:09:17;;;;;;;2.78;1.30;;;;;;;12.32;30.69;92834.91;6245129;23;20088;-93
2022/04/11 11:12:16;;;;;;;3.33;1.60;;;;;;;11.90;30.36;92836.59;6244889;23;20091;-93
2022/04/11 11:18:03;;;;;;;7.97;1.70;;;;;;;12.32;29.40;92898.69;6228077;22;20082;-93
2022/04/11 11:21:00;;;;;;;2.90;1.50;;;;;;;12.59;28.81;92858.59;6222945;23;20086;-93
2022/04/11 11:23:34;;;;;;;3.33;1.60;;;;;;;12.55;27.43;92826.09;6244441;23;20016;-93
2022/04/11 11:26:29;;;;;;;4.28;1.60;;;;;;;12.38;28.71;92852.88;6217918;23;20016;-93
2022/04/11 11:29:44;;;;;;;3.95;1.40;;;;;;;12.67;27.34;92817.75;6241888;23;20113;-93
2022/04/11 11:32:21;;;;;;;2.92;1.70;;;;;;;12.45;28.65;92810.50;6166938;23;20008;-94
2022/04/11 11:35:12;;;;;;;;;;;;;;;;;;;;;
2022/04/11 11:37:44;;;;;;;5.72;1.67;;;;;;;12.86;29.16;92820.31;6188589;23;20019;-93
2022/04/11 11:40:57;;;;;;;1.87;1.20;;;;;;;12.60;27.97;92881.16;6164977;23;20079;-93
2022/04/11 11:43:56;;;;;;;6.05;1.95;;;;;;;13.07;28.90;92844.34;6164958;23;20244;-93
2022/04/11 11:46:45;;;;;;;3.78;1.83;;;;;;;12.69;29.08;92802.47;6189082;23;20051;-93
2022/04/11 11:49:54;;;;;;;15.23;2.00;;;;;;;12.52;28.34;92808.31;6162845;23;20082;-94
2022/04/11 11:52:40;;;;;;;3.67;1.77;;;;;;;12.42;29.35;92832.88;6192492;23;20083;-92
2022/04/11 11:55:31;;;;;;;4.22;1.55;;;;;;;12.51;30.14;92872.38;6139862;23;20039;-93
2022/04/11 11:58:40;;;;;;;3.83;1.83;;;;;;;12.85;29.40;92793.22;6165138;23;20024;-93
2022/04/11 12:01:26;;;;;;;3.78;1.60;;;;;;;13.32;29.49;92864.13;6165438;23;20016;-93
2022/04/11 12:06:50;;;;;;;5.97;1.80;;;;;;;13.11;28.38;92788.28;6168279;23;20040;-94
2022/04/11 12:34:36;;;;;;;;;;;;;;;;;;;;;
2022/04/11 12:37:59;;;;;;;;;;;;;;;;;;;;;
2022/04/11 12:44:18;;;;;;;3.70;1.70;;;;;;;12.70;28.68;92783.81;6180452;23;20022;-94
2022/04/11 12:47:01;;;;;;;;;;;;;;;13.26;29.58;92854.75;6186199;23;20016;-94
2022/04/11 12:50:15;;;;;;;3.75;1.70;;;;;;;13.35;30.04;92854.88;6245958;23;19911;-93
2022/04/11 12:56:36;;;;;;;5.47;2.30;;;;;;;13.42;29.61;92868.38;6188180;23;20091;-94
2022/04/11 13:02:46;;;;;;;3.72;1.90;;;;;;;12.92;29.46;92819.13;6243793;22;20530;-92
2022/04/11 13:05:32;;;;;;;;;;;;;;;;;;;;;
2022/04/11 13:08:11;;;;;;;5.50;2.03;;;;;;;12.52;29.29;92831.94;6245114;23;20004;-93
2022/04/11 13:10:42;;;;;;;4.15;2.30;;;;;;;12.06;29.69;92825.56;6245412;23;20000;-92
2022/04/11 13:13:32;;;;;;;9.48;2.00;;;;;;;12.55;29.97;92804.31;6222105;23;20007;-93
2022/04/11 13:22:14;;;;;;;;;;;;;;;;;;;;;
2022/04/11 13:24:50;;;;;;;4.80;2.30;;;;;;;12.81;29.34;92818.56;6245256;23;20431;-95
2022/04/11 13:27:20;;;;;;;4.70;1.98;;;;;;;12.84;28.84;92778.56;6193994;23;20020;-95
2022/04/11 13:30:03;;;;;;;5.43;2.28;;;;;;;12.51;29.40;92764.72;6195536;23;20016;-95
2022/04/11 13:33:01;;;;;;;;;;;;;;;13.68;28.30;92840.50;6184801;23;20463;-93
2022/04/11 13:36:08;;;;;;;6.13;2.45;;;;;;;13.13;29.77;92767.72;6196601;23;19933;-94
2022/04/11 13:38:40;;;;;;;5.53;2.50;;;;;;;13.23;30.12;92813.28;6216250;23;20020;-93
2022/04/11 13:41:24;;;;;;;4.47;2.28;;;;;;;13.37;29.49;92816.69;6147133;23;20079;-92
2022/04/11 13:43:59;;;;;;;5.32;2.28;;;;;;;12.86;29.77;92799.28;6197530;23;20016;-93
2022/04/11 13:46:43;;;;;;;;;;;;;;;;;;;;;
2022/04/11 13:49:31;;;;;;;;;;;;;;;;;;;;;
2022/04/11 13:52:34;;;;;;;5.43;2.70;;;;;;;13.22;29.81;92752.03;6218462;23;20444;-93
2022/04/11 13:55:07;;;;;;;7.47;2.75;;;;;;;13.29;31.07;92807.66;6198777;23;20074;-94
2022/04/11 13:57:58;;;;;;;7.85;3.10;;;;;;;13.74;28.57;92770.16;6199722;23;20100;-93
2022/04/11 14:00:44;;;;;;;;;;;;;;;;;;;;;
2022/04/11 14:03:31;;;;;;;6.40;3.00;;;;;;;13.21;29.66;92747.06;6218317;23;20010;-93
2022/04/11 14:06:26;;;;;;;6.68;2.90;;;;;;;13.14;29.98;92763.25;6195446;23;20054;-94
2022/04/11 14:09:07;;;;;;;5.65;2.75;;;;;;;12.98;30.00;92743.63;6220825;23;20123;-93
2022/04/11 14:11:58;;;;;;;5.20;2.78;;;;;;;12.67;31.09;92728.44;6193930;23;20048;-94
2022/04/11 14:15:05;;;;;;;6.25;2.85;;;;;;;12.73;30.63;92742.28;6178737;23;20337;-94
2022/04/11 14:18:53;;;;;;;9.38;3.08;;;;;;;12.54;31.29;92751.03;6218790;23;20012;-93
2022/04/11 14:21:11;;;;;;;5.32;2.50;;;;;;;12.24;31.16;92754.97;6209577;23;20095;-92
2022/04/11 14:24:00;;;;;;;8.80;3.33;;;;;;;12.44;30.35;92720.47;6219349;23;20011;-93
2022/04/11 14:26:58;;;;;;;7.28;2.72;;;;;;;12.63;30.79;92730.09;6222052;23;20082;-93
2022/04/11 14:29:49;;;;;;;6.80;3.25;;;;;;;12.34;30.50;92719.88;6173719;23;20026;-94
2022/04/11 14:32:19;;;;;;;7.28;3.33;;;;;;;13.02;30.54;92762.97;6194231;23;20022;-92
2022/04/11 14:34:57;;;;;;;6.38;3.00;;;;;;;12.80;29.53;92732.16;6194607;23;20012;-92
2022/04/11 14:37:49;;;;;;;7.55;3.47;;;;;;;12.62;30.01;92742.47;6193887;23;20048;-92
2022/04/11 14:40:19;;;;;;;6.45;3.38;;;;;;;12.92;30.05;92727.16;6216698;23;20040;-92
2022/04/11 14:43:01;;;;;;;7.47;3.53;;;;;;;13.02;30.58;92750.63;6220584;23;20008;-92
2022/04/11 14:45:50;;;;;;;7.80;2.78;;;;;;;13.79;30.07;92775.28;6245304;23;20091;-92
2022/04/11 14:48:24;;;;;;;7.57;3.75;;;;;;;12.86;30.01;92717.84;6172022;23;20075;-92
2022/04/11 14:50:55;;;;;;;8.43;3.35;;;;;;;12.66;30.59;92725.06;6219292;23;20019;-93
2022/04/11 14:53:40;;;;;;;7.82;3.50;;;;;;;12.78;30.58;92716.66;6194679;23;20012;-94